Terminal Aerodrome Forecast
Issued by NWS Charleston, WV

Current Version | Previous Version | Text Only | Print | Product List | Glossary Off
Versions: 1 2 3 4 5 6 7 8 9 10 11 12 13 14 15 16 17 18 19 20 21 22 23 24 25

334
FTUS41 KRLX 171738
TAFBKW
TAF
KBKW 171738Z 1718/1818 24006KT P6SM SCT030
     FM171930 24006KT P6SM VCTS SCT025CB BKN040
     FM172300 22004KT P6SM SCT035
     FM181000 23004KT P6SM BKN015=

USA.gov is the U.S. government's official web portal to all federal, state and local government web resources and services.